Hauptseite
METAR-TAF:

METAR-TAF

Flughäfen :

Militärflugplatz Nancy-Ochey

Nancy, Frankreich

Breite: 48-35N, Länge: 005-58E, Höhe: 336 m

Beobachtung

Neuester Wetterbericht von vor 48 Minuten, um 15:30 UTC
Wind 10 kt aus Nordost, variierte zwischen Nord/Nordost und Ost
Temperatur 27°C
Luftfeuchtigkeit 34%
Luftdruck 1022 hPa
Sichtweite 10 km oder mehr
keine Wolken unter 1500 m und keine Kumulonimbus oder Gewitterwolken

METAR: LFSO 231530Z AUTO 05010KT 030V090 CAVOK 27/10 Q1022

Zeit: 18:18 (16:18 UTC)

Prognose

Neuester Wetterbericht von vor 8 Stunden und 18 Minuten, um 08:00 UTC
Gültige Prognose vom 23 um 09 UTC bis 24 um 09 UTC
Wind 10 kt aus Ost/Nordost
Sichtweite 10 km oder mehr
keine Wolken unter 1500 m und keine Kumulonimbus oder Gewitterwolken
Übergehend zu
vom 24 um 02 UTC bis 24 um 04 UTC
Wind 1 kt aus unterschiedlichen Richtungen

TAF: LFSO 230800Z 2309/2409 07010KT CAVOK BECMG 2402/2404 VRB01KT

Wetterbeobachtungen und Prognosen von mehr als 4000 Flughäfen (METAR und TAF Bericht).

Die verfügbaren Stationen werden durch gelbe und rote Markierungen auf der Karte dargestellt.

Führen Sie die Maus auf sie, um den Namen der Station zu sehen.

Darauf klicken, um die Beobachtung von Wetterbeobachtungen und Prognosen zu sehen.

Um die Karte zu ändern : klicken Sie auf den grünen Tasten mit einem schwarzen Kreuz Zum Vergrößern, auf den grünen Button mit einem Gedankenstrich zu verkleinern, oder auf die grünen Pfeile für benachbarte Karten.


METAR-TAF: